Flight Track Log - Related Links

Times and Time Zones

All times are in EDT time to prevent confusion due to time zone crossing. See the AWE1600 flight status page for this flight to view local times or setup timezone preferences in your user account.

Time Position Orientation Groundspeed Altitude Reporting Facility
EDT Latitude Longitude Course Direction KTS MPH feet Rate Location/Type
Thu 09:28:06 AM 39.8833 -75.2167 270° West 142 163 700  Level Philadelphia TRACON
Thu 09:28:21 AM 39.8794 -75.2111 132° Southeast 153 176 1,400 2,229 Climbing FAA TRACON SMA TRACON (SMA)
Thu 09:28:41 AM 39.8861 -75.1931 64° Northeast 165 190 2,000 1,800 Climbing FAA TRACON SMA TRACON (SMA)
Thu 09:29:01 AM 39.8947 -75.1719 62° Northeast 210 242 2,600 1,950 Climbing FAA TRACON SMA TRACON (SMA)
Thu 09:29:21 AM 39.9058 -75.1425 64° Northeast 248 285 3,300 2,462 Climbing FAA TRACON SMA TRACON (SMA)
Thu 09:29:40 AM 39.9172 -75.1161 61° Northeast 279 321 4,200 2,550 Climbing FAA TRACON SMA TRACON (SMA)
Thu 09:30:00 AM 39.9054 -75.6217 288° West  Level FlightAware Approximate
Thu 09:30:01 AM 39.9367 -75.0983 35° Northeast 293 337 5,000  Level FAA TRACON SMA TRACON (SMA)
Thu 09:30:20 AM 39.9614 -75.0992 359° North 290 334 6,500 4,500 Climbing FAA TRACON SMA TRACON (SMA)
Thu 09:30:41 AM 39.9828 -75.1236 319° Northwest 279 321 8,000 3,805 Climbing FAA TRACON SMA TRACON (SMA)
Thu 09:31:00 AM 39.9025 -75.7516 258° West  Level FlightAware Approximate
Thu 09:31:01 AM 39.9867 -75.1514 280° West 262 302 9,100  Level FAA TRACON SMA TRACON (SMA)
Thu 09:31:21 AM 39.9831 -75.1861 262° West 273 314 9,900 1,200 Climbing FAA TRACON SMA TRACON (SMA)
Thu 09:31:41 AM 39.9783 -75.2222 260° West 295 339 9,900 150 Level FAA TRACON SMA TRACON (SMA)
Thu 09:32:00 AM 39.9001 -75.8854 270° West  Level FlightAware Approximate
Thu 09:32:01 AM 39.9736 -75.2614 261° West 298 343 10,000  Level FAA TRACON SMA TRACON (SMA)
Thu 09:32:41 AM 39.9644 -75.3275 260° West 300 345 10,000  Level FAA TRACON SMA TRACON (SMA)
Thu 09:33:00 AM 39.9000 -76.0196 270° West  Level FlightAware Approximate
Thu 09:33:01 AM 39.9597 -75.3683 261° West 299 344 10,000  Level FAA TRACON SMA TRACON (SMA)
Thu 09:33:21 AM 39.9547 -75.4008 259° West 300 345 10,000 150 Level FAA TRACON SMA TRACON (SMA)
Thu 09:33:41 AM 39.9506 -75.4336 261° West 298 343 10,100 1,050 Climbing FAA TRACON SMA TRACON (SMA)
Thu 09:34:01 AM 39.9447 -75.4753 260° West 306 352 10,700 1,350 Climbing FAA TRACON SMA TRACON (SMA)
Thu 09:34:21 AM 39.9447 -75.5119 270° West 314 361 11,000 450 Climbing FAA TRACON SMA TRACON (SMA)
Thu 09:34:41 AM 39.9481 -75.5464 277° West 318 366 11,000 308 Level FAA TRACON SMA TRACON (SMA)
Thu 09:35:00 AM 39.9503 -75.5892 274° West 323 372 11,200 1,200 Climbing FAA TRACON SMA TRACON (SMA)
Thu 09:35:21 AM 39.9531 -75.6283 275° West 345 397 11,800 2,341 Climbing FAA TRACON SMA TRACON (SMA)
Thu 09:35:41 AM 39.9561 -75.6703 275° West 355 409 12,800 2,550 Climbing FAA TRACON SMA TRACON (SMA)
Thu 09:36:01 AM 39.9597 -75.7192 276° West 364 419 13,500 2,250 Climbing FAA TRACON SMA TRACON (SMA)
Thu 09:36:21 AM 39.9631 -75.7622 276° West 373 429 14,300 2,550 Climbing FAA TRACON SMA TRACON (SMA)
Thu 09:36:41 AM 39.9667 -75.8067 276° West 387 445 15,200 2,700 Climbing FAA TRACON SMA TRACON (SMA)
Thu 09:37:01 AM 39.9711 -75.8586 276° West 393 452 16,100 2,400 Climbing FAA TRACON SMA TRACON (SMA)
Thu 09:37:21 AM 39.9742 -75.9056 275° West 396 456 16,800 2,400 Climbing FAA TRACON SMA TRACON (SMA)
Thu 09:37:41 AM 39.9778 -75.9506 276° West 402 463 17,700 1,950 Climbing FAA TRACON SMA TRACON (SMA)
Thu 09:38:01 AM 39.9794 -75.9844 274° West 404 465 18,100 1,752 Climbing FAA TRACON SMA TRACON (SMA)
Thu 09:39:34 AM 39.9653 -76.2069 265° West 416 479 21,000 2,065 Climbing New York Center
Thu 09:40:35 AM 39.9525 -76.3900 265° West 430 495 23,400 1,983 Climbing New York Center
Thu 09:41:35 AM 39.9406 -76.5489 264° West 441 507 25,000 1,500 Climbing New York Center
Thu 09:42:35 AM 39.9325 -76.7133 266° West 446 513 26,400 1,190 Climbing New York Center
Thu 09:43:36 AM 39.9617 -76.8783 283° West 451 519 27,400 1,109 Climbing New York Center
Thu 09:44:34 AM 39.9922 -77.0492 283° West 472 543 28,600 1,678 Climbing New York Center
Thu 09:45:34 AM 40.0061 -77.2183 276° West 478 550 30,700 1,929 Climbing New York Center
Thu 09:47:50 AM 39.9792 -77.5647 264° West 462 532 34,900 1,745 Climbing Cleveland Center
Thu 09:48:50 AM 39.9853 -77.7244 273° West 452 520 36,400 1,250 Climbing Cleveland Center
Thu 09:49:50 AM 39.9914 -77.8842 273° West 441 507 37,400 800 Climbing Cleveland Center
Thu 09:50:50 AM 40.0117 -78.0406 280° West 441 507 38,000 300 Climbing Cleveland Center
Thu 09:51:50 AM 40.0317 -78.1969 280° West 441 507 38,000  Level Cleveland Center
Thu 09:52:50 AM 40.0478 -78.3728 277° West 441 507 38,000 -200 Level Cleveland Center
Thu 09:53:50 AM 40.0694 -78.5294 280° West 441 507 37,600 -500 Descending Cleveland Center
Thu 09:54:50 AM 40.1097 -78.6775 290° West 441 507 37,000 -300 Descending Cleveland Center
Thu 09:55:50 AM 40.1517 -78.8311 290° West 441 507 37,000  Level Cleveland Center
Thu 09:56:50 AM 40.1956 -78.9794 291° West 446 513 37,000 -300 Level Cleveland Center
Thu 09:57:50 AM 40.2372 -79.1308 290° West 446 513 36,400 -800 Descending Cleveland Center
Thu 09:58:50 AM 40.2786 -79.2822 290° West 446 513 35,400 -950 Descending Cleveland Center
Thu 09:59:50 AM 40.3219 -79.4339 291° West 446 513 34,500 -950 Descending Cleveland Center
Thu 10:00:50 AM 40.3631 -79.5803 290° West 441 507 33,500 -1,000 Descending Cleveland Center
Thu 10:01:50 AM 40.4036 -79.7242 290° West 441 507 32,500 -750 Descending Cleveland Center
Thu 10:02:50 AM 40.4422 -79.8739 289° West 430 495 32,000 -250 Descending Cleveland Center
Thu 10:03:50 AM 40.4806 -80.0208 289° West 430 495 32,000  Level Cleveland Center
Thu 10:04:50 AM 40.5189 -80.1706 289° West 430 495 32,000  Level Cleveland Center
Thu 10:05:50 AM 40.5589 -80.3181 290° West 430 495 32,000 -300 Level Cleveland Center
Thu 10:06:50 AM 40.5986 -80.4492 292° West 430 495 31,400 -850 Descending Cleveland Center
Thu 10:07:50 AM 40.6383 -80.6158 287° West 430 495 30,300 -700 Descending Cleveland Center
Thu 10:08:50 AM 40.6819 -80.7447 294° West 430 495 30,000 -150 Descending Cleveland Center
Thu 10:09:50 AM 40.7442 -80.8817 301° West 435 501 30,000  Level Cleveland Center
Thu 10:10:50 AM 40.8125 -81.0194 303° West 440 506 30,000  Level Cleveland Center
Thu 10:11:50 AM 40.8744 -81.1569 301° West 446 513 30,000  Level Cleveland Center
Thu 10:12:50 AM 40.9425 -81.2950 303° West 446 513 30,000  Level Cleveland Center
Thu 10:13:50 AM 41.0083 -81.4333 302° West 446 513 30,000  Level Cleveland Center
Thu 10:14:50 AM 41.0739 -81.5719 302° West 446 513 30,000 -350 Level Cleveland Center
Thu 10:15:50 AM 41.1497 -81.7053 307° West 451 519 29,300 -850 Descending Cleveland Center
Thu 10:16:50 AM 41.2256 -81.8419 306° West 456 525 28,300 -1,650 Descending Cleveland Center
Thu 10:17:50 AM 41.2969 -81.9761 305° West 461 531 26,000 -2,600 Descending Cleveland Center
Thu 10:18:50 AM 41.3722 -82.1217 305° West 448 516 23,100 -2,500 Descending Cleveland Center
Thu 10:19:50 AM 41.4392 -82.2478 305° West 434 499 21,000 -1,950 Descending Cleveland Center
Thu 10:20:50 AM 41.4981 -82.3547 306° West 421 484 19,200 -1,850 Descending Cleveland Center
Thu 10:21:50 AM 41.5589 -82.4672 306° West 392 451 17,300 -2,082 Descending Cleveland Center
Thu 10:22:28 AM 41.6011 -82.5464 306° West 373 429 15,800 -1,900 Descending Cleveland Center
Thu 10:22:50 AM 41.6172 -82.5803 302° West 379 436 15,400 -1,869 Descending Cleveland Center
Thu 10:23:29 AM 41.6597 -82.6567 307° West 367 422 13,900 -2,300 Descending Cleveland Center
Thu 10:23:50 AM 41.6819 -82.7017 303° West 367 422 13,100 -1,855 Descending Cleveland Center
Thu 10:24:24 AM 41.7161 -82.7642 306° West 361 415 12,200 -1,100 Descending Cleveland Center
Thu 10:24:50 AM 41.7444 -82.8067 312° West 367 422 12,000 -140 Descending Cleveland Center
Thu 10:25:50 AM 41.8200 -82.8958 319° Northwest 355 409 12,000 59 Level Cleveland Center
Thu 10:26:31 AM 41.8728 -82.9592 318° Northwest 363 418 12,100  Climbing Cleveland Center
Thu 10:26:50 AM 41.8931 -82.9822 320° Northwest 355 409 12,000  Descending Cleveland Center
Thu 10:27:38 AM 41.9603 -83.0628 318° Northwest 365 420 12,100 58 Climbing Cleveland Center
Thu 10:28:33 AM 42.0272 -83.1436 318° Northwest 340 391 12,100 -83 Level Cleveland Center
Thu 10:28:50 AM 42.0414 -83.1611 317° Northwest 353 406 12,000 -109 Descending Cleveland Center
Thu 10:29:28 AM 42.0781 -83.2044 319° Northwest 282 325 12,000 -100 Level Cleveland Center
Thu 10:29:50 AM 42.1006 -83.2250 326° Northwest 315 362 11,900 -1,164 Descending Cleveland Center
Thu 10:30:35 AM 42.1650 -83.2306 356° North 296 341 10,700 -1,600 Descending Cleveland Center
Thu 10:30:50 AM 42.1817 -83.2256 13° North 261 300 10,300 -1,672 Descending Cleveland Center
Thu 10:31:36 AM 42.2389 -83.1914 24° Northeast 298 343 9,000 -1,626 Descending Cleveland Center
Thu 10:32:37 AM 42.3150 -83.1442 25° Northeast 295 339 7,400 -1,734 Descending Cleveland Center
Thu 10:33:44 AM 42.3769 -83.1633 347° North 186 214 5,300 -1,922 Descending Cleveland Center
Thu 10:34:45 AM 42.3633 -83.2219 253° West 152 175 3,300 -1,131 Descending Cleveland Center
Thu 10:35:46 AM 42.3333 -83.2517 216° Southwest 131 151 3,000 -414 Descending Cleveland Center
Thu 10:36:41 AM 42.3036 -83.2728 208° Southwest 130 150 2,500 -545 Descending Cleveland Center

Login

Don't have an account? Register now (free) for customized features, flight alerts, and more!